Terminal Aerodrome Forecast
Issued by NWS

Home | Current Version | Previous Version | Text Only | Print | Product List | Glossary On
Versions: 1 2 3 4 5 6 7 8 9 10 11 12 13 14 15 16
000
FTAK31 PAJN 242300
TAFAKT
TAF
PAKT 242323Z 2500/2524 14012G20KT P6SM -SHRA SCT020 OVC035
      TEMPO 2500/2503 5SM SHRA BR BKN020
     FM250300 14010KT P6SM -SHRA BKN022 OVC035
     FM251200 14006KT P6SM VCSH SCT025 OVC045
     FM251800 33007KT P6SM SCT045 BKN080
     FM252100 33009KT P6SM SCT080
      AMD LTD TO CLD VIS AND WIND 2506/2515=

USA.gov is the U.S. government's official web portal to all federal, state and local government web resources and services.